createdAt,value
2018-04-26T00:01:44.441Z,13.77
2018-04-26T00:04:14.044Z,20.47
2018-04-26T00:06:43.624Z,16.50
2018-04-26T00:09:13.191Z,17.47
2018-04-26T00:11:42.757Z,22.43
2018-04-26T00:14:12.321Z,22.30
2018-04-26T00:16:41.817Z,17.80
2018-04-26T00:19:11.366Z,19.60
2018-04-26T00:21:40.844Z,14.50
2018-04-26T00:24:10.374Z,18.70
2018-04-26T00:26:39.903Z,17.50
2018-04-26T00:29:09.556Z,14.63
2018-04-26T00:31:39.068Z,19.90
2018-04-26T00:34:08.633Z,18.33
2018-04-26T00:36:38.204Z,15.13
2018-04-26T00:39:07.708Z,20.97
2018-04-26T00:41:37.255Z,16.93
2018-04-26T00:44:06.789Z,15.17
2018-04-26T00:46:36.301Z,24.70
2018-04-26T00:49:05.859Z,19.13
2018-04-26T00:51:41.209Z,24.77
2018-04-26T00:54:10.686Z,16.17
2018-04-26T00:56:40.285Z,21.27
2018-04-26T00:59:09.863Z,16.03
2018-04-26T01:01:39.427Z,25.00
2018-04-26T01:04:09.017Z,17.63
2018-04-26T01:06:38.560Z,22.40
2018-04-26T01:09:08.089Z,23.87
2018-04-26T01:11:37.645Z,16.90
2018-04-26T01:14:07.367Z,18.80
2018-04-26T01:16:36.940Z,24.67
2018-04-26T01:19:06.492Z,29.30
2018-04-26T01:21:36.020Z,30.00
2018-04-26T01:24:05.858Z,17.37
2018-04-26T01:26:35.408Z,26.10
2018-04-26T01:29:04.956Z,24.10
2018-04-26T01:31:34.570Z,23.10
2018-04-26T01:34:04.244Z,14.90
2018-04-26T01:36:39.665Z,30.40
2018-04-26T01:39:09.190Z,15.43
2018-04-26T01:41:38.705Z,20.40
2018-04-26T01:44:08.457Z,17.00
2018-04-26T01:46:38.084Z,23.03
2018-04-26T01:49:07.632Z,32.07
2018-04-26T01:51:37.166Z,23.00
2018-04-26T01:54:06.993Z,21.90
2018-04-26T01:56:36.552Z,24.30
2018-04-26T01:59:06.141Z,15.77
2018-04-26T02:01:35.697Z,23.17
2018-04-26T02:04:05.325Z,20.43
2018-04-26T02:06:34.954Z,35.30
2018-04-26T02:09:04.517Z,18.97
2018-04-26T02:11:34.083Z,26.03
2018-04-26T02:14:04.711Z,24.60
2018-04-26T02:16:34.281Z,26.33
2018-04-26T02:19:03.869Z,18.87
2018-04-26T02:21:33.425Z,16.80
2018-04-26T02:24:03.138Z,31.20
2018-04-26T02:26:32.771Z,22.20
2018-04-26T02:29:02.309Z,23.23
2018-04-26T02:34:16.006Z,17.97
2018-04-26T02:36:45.626Z,29.93
2018-04-26T02:39:15.184Z,31.67
2018-04-26T02:41:44.717Z,25.50
2018-04-26T02:44:14.432Z,16.40
2018-04-26T02:46:43.989Z,38.00
2018-04-26T02:49:13.528Z,22.83
2018-04-26T02:51:43.272Z,20.23
2018-04-26T02:54:12.903Z,21.57
2018-04-26T02:56:42.475Z,20.07
2018-04-26T02:59:11.958Z,27.87
2018-04-26T03:01:41.490Z,28.13
2018-04-26T03:04:10.988Z,27.73
2018-04-26T03:06:40.616Z,21.87
2018-04-26T03:09:10.136Z,22.77
2018-04-26T03:11:39.641Z,29.37
2018-04-26T03:14:09.205Z,21.43
2018-04-26T03:16:38.747Z,26.20
2018-04-26T03:19:08.254Z,23.93
2018-04-26T03:21:37.737Z,22.67
2018-04-26T03:24:07.292Z,22.90
2018-04-26T03:26:36.774Z,22.97
2018-04-26T03:29:06.306Z,15.73
2018-04-26T03:31:35.825Z,23.63
2018-04-26T03:34:05.322Z,24.93
2018-04-26T03:36:34.999Z,17.73
2018-04-26T03:39:05.322Z,17.33
2018-04-26T03:41:34.864Z,29.93
2018-04-26T03:44:04.444Z,22.57
2018-04-26T03:46:33.976Z,22.63
2018-04-26T03:49:03.530Z,28.83
2018-04-26T03:51:33.029Z,20.57
2018-04-26T03:54:02.562Z,24.00
2018-04-26T03:56:32.086Z,24.87
2018-04-26T03:59:01.597Z,21.00
2018-04-26T04:01:37.018Z,25.20
2018-04-26T04:04:12.330Z,30.03
2018-04-26T04:06:41.868Z,23.30
2018-04-26T04:09:11.389Z,22.37
2018-04-26T04:11:40.926Z,26.10
2018-04-26T04:14:10.404Z,35.67
2018-04-26T04:16:39.899Z,26.10
2018-04-26T04:19:09.447Z,26.17
2018-04-26T04:21:38.964Z,36.90
2018-04-26T04:24:08.624Z,31.00
2018-04-26T04:26:38.160Z,21.13
2018-04-26T04:29:07.686Z,25.63
2018-04-26T04:31:37.173Z,22.50
2018-04-26T04:34:06.682Z,31.10
2018-04-26T04:36:36.293Z,47.63
2018-04-26T04:39:05.860Z,33.57
2018-04-26T04:41:35.405Z,26.27
2018-04-26T04:44:04.908Z,32.20
2018-04-26T04:46:34.456Z,32.63
2018-04-26T04:49:03.963Z,37.63
2018-04-26T04:51:33.651Z,35.93
2018-04-26T04:54:03.144Z,32.60
2018-04-26T04:56:32.673Z,37.90
2018-04-26T04:59:02.213Z,45.23
2018-04-26T05:01:31.746Z,28.17
2018-04-26T05:04:01.267Z,22.47
2018-04-26T05:06:30.790Z,29.30
2018-04-26T05:09:00.349Z,26.67
2018-04-26T05:11:29.917Z,30.33
2018-04-26T05:13:59.637Z,28.70
2018-04-26T05:16:29.176Z,26.73
2018-04-26T05:18:58.677Z,23.47
2018-04-26T05:21:28.204Z,18.20
2018-04-26T05:23:57.704Z,14.80
2018-04-26T05:26:27.260Z,24.70
2018-04-26T05:28:56.759Z,22.57
2018-04-26T05:31:26.291Z,35.70
2018-04-26T05:33:55.820Z,45.90
2018-04-26T05:36:25.404Z,40.50
2018-04-26T05:38:54.978Z,28.67
2018-04-26T05:41:24.480Z,34.57
2018-04-26T05:43:54.237Z,33.60
2018-04-26T05:46:23.760Z,56.03
2018-04-26T05:48:53.419Z,31.40
2018-04-26T05:51:22.946Z,52.40
2018-04-26T05:53:52.521Z,61.20
2018-04-26T05:56:22.229Z,21.77
2018-04-26T05:58:51.777Z,27.40
2018-04-26T06:01:21.305Z,38.87
2018-04-26T06:03:50.819Z,26.43
2018-04-26T06:06:20.338Z,31.50
2018-04-26T06:08:49.820Z,25.53
2018-04-26T06:11:19.329Z,27.30
2018-04-26T06:13:48.992Z,17.67
2018-04-26T06:16:18.580Z,25.53
2018-04-26T06:18:48.120Z,24.73
2018-04-26T06:21:17.685Z,56.17
2018-04-26T06:23:47.273Z,65.40
2018-04-26T06:26:16.840Z,28.00
2018-04-26T06:28:46.400Z,58.90
2018-04-26T06:31:15.922Z,52.53
2018-04-26T06:33:45.466Z,23.53
2018-04-26T06:36:15.003Z,25.70
2018-04-26T06:38:44.490Z,20.03
2018-04-26T06:41:14.036Z,39.10
2018-04-26T06:43:44.531Z,42.60
2018-04-26T06:46:14.103Z,20.50
2018-04-26T06:48:43.656Z,21.40
2018-04-26T06:51:13.176Z,27.33
2018-04-26T06:53:42.889Z,27.03
2018-04-26T06:56:12.524Z,19.90
2018-04-26T06:58:42.071Z,29.60
2018-04-26T07:01:11.692Z,25.97
2018-04-26T07:03:41.283Z,24.10
2018-04-26T07:06:10.940Z,35.60
2018-04-26T07:08:40.477Z,19.13
2018-04-26T07:11:10.037Z,41.67
2018-04-26T07:13:39.821Z,27.93
2018-04-26T07:16:09.380Z,24.43
2018-04-26T07:18:38.924Z,34.63
2018-04-26T07:21:08.475Z,23.63
2018-04-26T07:23:38.011Z,21.57
2018-04-26T07:26:07.598Z,23.13
2018-04-26T07:28:37.128Z,22.00
2018-04-26T07:31:06.699Z,32.33
2018-04-26T07:33:36.250Z,24.00
2018-04-26T07:36:05.770Z,25.07
2018-04-26T07:38:35.332Z,20.83
2018-04-26T07:41:04.858Z,14.93
2018-04-26T07:43:34.384Z,15.17
2018-04-26T07:46:03.897Z,26.37
2018-04-26T07:48:33.468Z,33.93
2018-04-26T07:51:03.100Z,31.73
2018-04-26T07:53:32.641Z,29.23
2018-04-26T07:56:02.204Z,30.53
2018-04-26T07:58:31.770Z,24.50
2018-04-26T08:01:01.383Z,28.80
2018-04-26T08:03:30.916Z,21.53
2018-04-26T08:06:00.480Z,25.50
2018-04-26T08:08:30.138Z,22.97
2018-04-26T08:10:59.845Z,22.27
2018-04-26T08:13:30.254Z,23.07
2018-04-26T08:15:59.785Z,19.07
2018-04-26T08:18:31.693Z,26.83
2018-04-26T08:21:01.315Z,29.63
2018-04-26T08:23:30.930Z,20.27
2018-04-26T08:26:00.415Z,16.17
2018-04-26T08:28:29.986Z,26.90
2018-04-26T08:30:59.521Z,18.53
2018-04-26T08:33:29.081Z,21.20
2018-04-26T08:35:58.621Z,29.93
2018-04-26T08:38:28.239Z,23.17
2018-04-26T08:40:57.809Z,20.73
2018-04-26T08:43:27.342Z,21.27
2018-04-26T08:45:56.903Z,19.30
2018-04-26T08:48:26.397Z,24.10
2018-04-26T08:50:55.885Z,26.37
2018-04-26T08:53:25.421Z,19.93
2018-04-26T08:55:54.929Z,20.80
2018-04-26T08:58:24.446Z,18.93
2018-04-26T09:00:53.973Z,25.63
2018-04-26T09:03:23.492Z,24.30
2018-04-26T09:05:53.026Z,16.73
2018-04-26T09:08:22.555Z,27.87
2018-04-26T09:10:52.090Z,18.00
2018-04-26T09:13:21.659Z,28.10
2018-04-26T09:15:51.176Z,19.50
2018-04-26T09:18:20.713Z,19.93
2018-04-26T09:20:50.245Z,18.50
2018-04-26T09:23:19.773Z,23.13
2018-04-26T09:25:49.290Z,24.53
2018-04-26T09:28:18.764Z,21.10
2018-04-26T09:30:48.289Z,19.70
2018-04-26T09:33:17.854Z,26.67
2018-04-26T09:35:47.390Z,24.53
2018-04-26T09:38:16.893Z,13.20
2018-04-26T09:40:46.422Z,17.87
2018-04-26T09:43:16.015Z,29.43
2018-04-26T09:45:45.580Z,21.10
2018-04-26T09:48:15.109Z,19.97
2018-04-26T09:50:44.736Z,11.83
2018-04-26T09:53:14.365Z,13.13
2018-04-26T09:55:43.954Z,13.27
2018-04-26T09:58:13.463Z,17.30
2018-04-26T10:00:43.007Z,17.43
2018-04-26T10:03:12.555Z,14.23
2018-04-26T10:05:47.735Z,19.27
2018-04-26T10:08:17.266Z,26.20
2018-04-26T10:10:46.806Z,20.10
2018-04-26T10:13:16.340Z,18.50
2018-04-26T10:15:45.872Z,14.40
2018-04-26T10:18:15.424Z,15.13
2018-04-26T10:20:44.948Z,27.30
2018-04-26T10:23:14.495Z,16.97
2018-04-26T10:25:44.065Z,22.60
2018-04-26T10:28:13.614Z,18.23
2018-04-26T10:30:43.118Z,11.80
2018-04-26T10:33:12.616Z,12.83
2018-04-26T10:35:42.183Z,15.80
2018-04-26T10:38:11.699Z,13.70
2018-04-26T10:40:41.468Z,16.43
2018-04-26T10:43:10.942Z,19.37
2018-04-26T10:45:40.484Z,24.13
2018-04-26T10:48:10.000Z,11.07
2018-04-26T10:50:39.678Z,14.47
2018-04-26T10:53:09.350Z,10.37
2018-04-26T10:55:38.844Z,9.50
2018-04-26T10:58:08.362Z,15.17
2018-04-26T11:00:37.881Z,18.73
2018-04-26T11:03:07.427Z,17.00
2018-04-26T11:05:37.004Z,16.97
2018-04-26T11:08:06.528Z,13.93
2018-04-26T11:10:36.057Z,20.50
2018-04-26T11:13:05.583Z,21.53
2018-04-26T11:15:35.128Z,20.57
2018-04-26T11:18:04.665Z,13.77
2018-04-26T11:20:34.215Z,26.13
2018-04-26T11:23:03.757Z,19.53
2018-04-26T11:25:34.448Z,26.93
2018-04-26T11:28:04.003Z,16.33
2018-04-26T11:30:33.499Z,20.53
2018-04-26T11:33:03.004Z,18.60
2018-04-26T11:35:32.583Z,17.20
2018-04-26T11:38:02.122Z,14.17
2018-04-26T11:40:31.675Z,13.23
2018-04-26T11:43:01.241Z,23.30
2018-04-26T11:45:30.785Z,18.23
2018-04-26T11:48:00.336Z,11.03
2018-04-26T11:50:29.838Z,13.50
2018-04-26T11:52:59.342Z,8.57
2018-04-26T11:55:28.896Z,9.20
2018-04-26T11:57:58.449Z,10.40
2018-04-26T12:00:28.079Z,22.67
2018-04-26T12:02:57.604Z,10.60
2018-04-26T12:05:27.102Z,18.90
2018-04-26T12:07:56.608Z,16.70
2018-04-26T12:10:26.144Z,16.80
2018-04-26T12:12:55.691Z,18.83
2018-04-26T12:15:25.229Z,11.07
2018-04-26T12:17:54.749Z,67.80
2018-04-26T12:20:24.304Z,57.80
2018-04-26T12:22:53.813Z,77.03
2018-04-26T12:25:23.353Z,197.27
2018-04-26T12:27:52.948Z,237.23
2018-04-26T12:30:22.499Z,296.42
2018-04-26T12:32:52.100Z,143.37
2018-04-26T12:35:21.656Z,412.17
2018-04-26T12:37:51.206Z,75.97
2018-04-26T12:40:20.717Z,187.35
2018-04-26T12:42:50.209Z,272.75
2018-04-26T12:45:19.761Z,46.33
2018-04-26T12:47:49.444Z,39.67
2018-04-26T12:50:19.061Z,72.22
2018-04-26T12:52:48.610Z,44.20
2018-04-26T12:55:18.116Z,89.03
2018-04-26T12:57:47.684Z,54.43
2018-04-26T13:00:17.401Z,37.58
2018-04-26T13:02:46.977Z,45.22
2018-04-26T13:05:16.590Z,17.52
2018-04-26T13:07:46.088Z,35.97
2018-04-26T13:10:15.826Z,30.83
2018-04-26T13:12:45.360Z,14.05
2018-04-26T13:15:14.935Z,15.57
2018-04-26T13:17:44.510Z,11.02
2018-04-26T13:20:14.021Z,16.90
2018-04-26T13:22:43.553Z,9.75
2018-04-26T13:25:13.113Z,10.38
2018-04-26T13:27:42.660Z,10.05
2018-04-26T13:30:12.240Z,13.27
2018-04-26T13:32:41.762Z,32.25
2018-04-26T13:35:11.301Z,21.90
2018-04-26T13:37:40.836Z,15.50
2018-04-26T13:40:10.368Z,11.02
2018-04-26T13:42:39.896Z,11.27
2018-04-26T13:45:09.433Z,13.23
2018-04-26T13:47:38.984Z,17.15
2018-04-26T13:50:08.524Z,19.60
2018-04-26T13:52:38.027Z,12.77
2018-04-26T13:55:07.507Z,8.40
2018-04-26T13:57:37.009Z,14.80
2018-04-26T14:00:06.772Z,7.85
2018-04-26T14:02:36.361Z,9.85
2018-04-26T14:05:05.861Z,17.48
2018-04-26T14:07:35.382Z,11.18
2018-04-26T14:10:04.928Z,10.82
2018-04-26T14:12:34.497Z,10.20
2018-04-26T14:15:04.096Z,7.78
2018-04-26T14:17:33.629Z,10.48
2018-04-26T14:20:03.252Z,8.55
2018-04-26T14:22:32.753Z,14.85
2018-04-26T14:25:02.548Z,15.60
2018-04-26T14:27:32.216Z,14.93
2018-04-26T14:30:01.800Z,9.07
2018-04-26T14:32:31.335Z,10.15
2018-04-26T14:35:00.965Z,9.88
2018-04-26T14:37:30.538Z,9.10
2018-04-26T14:40:00.027Z,13.57
2018-04-26T14:42:29.573Z,4.50
2018-04-26T14:44:59.149Z,8.95
2018-04-26T14:47:28.672Z,7.75
2018-04-26T14:49:58.155Z,14.07
2018-04-26T14:52:27.732Z,8.00
2018-04-26T14:54:57.310Z,7.45
2018-04-26T14:57:26.845Z,5.25
2018-04-26T14:59:56.457Z,13.27
2018-04-26T15:02:26.044Z,14.65
2018-04-26T15:04:55.629Z,21.27
2018-04-26T15:07:25.260Z,9.82
2018-04-26T15:09:54.787Z,9.23
2018-04-26T15:12:24.466Z,8.63
2018-04-26T15:14:54.081Z,12.98
2018-04-26T15:17:23.589Z,7.37
2018-04-26T15:19:53.148Z,9.18
2018-04-26T15:22:22.721Z,9.23
2018-04-26T15:24:52.279Z,23.25
2018-04-26T15:27:21.868Z,8.85
2018-04-26T15:29:51.430Z,9.10
2018-04-26T15:32:21.006Z,12.05
2018-04-26T15:34:50.488Z,10.73
2018-04-26T15:37:20.022Z,10.02
2018-04-26T15:39:49.583Z,16.25
2018-04-26T15:42:19.151Z,11.12
2018-04-26T15:44:48.677Z,10.73
2018-04-26T15:47:18.242Z,12.00
2018-04-26T15:49:47.948Z,14.80
2018-04-26T15:52:23.341Z,8.77
2018-04-26T15:54:58.751Z,17.77
2018-04-26T15:57:48.690Z,9.15
2018-04-26T16:00:34.094Z,19.50
2018-04-26T16:03:09.489Z,6.32
2018-04-26T16:05:44.719Z,6.55
2018-04-26T16:08:25.872Z,7.97
2018-04-26T16:11:06.827Z,5.50
2018-04-26T16:13:47.928Z,7.55
2018-04-26T16:16:28.993Z,13.70
2018-04-26T16:19:04.437Z,13.40
2018-04-26T16:21:39.749Z,11.65
2018-04-26T16:24:20.950Z,13.95
2018-04-26T16:27:02.066Z,9.10
2018-04-26T16:29:40.051Z,8.20
2018-04-26T16:32:21.193Z,6.62
2018-04-26T16:34:56.465Z,11.95
2018-04-26T16:37:37.516Z,11.40
2018-04-26T16:40:07.043Z,17.73
2018-04-26T16:42:36.606Z,6.77
2018-04-26T16:45:06.128Z,12.47
2018-04-26T16:47:35.708Z,7.57
2018-04-26T16:50:05.209Z,14.27
2018-04-26T16:52:34.896Z,15.13
2018-04-26T16:55:04.915Z,11.37
2018-04-26T16:57:34.477Z,11.63
2018-04-26T17:00:04.056Z,12.70
2018-04-26T17:02:33.594Z,16.70
2018-04-26T17:05:03.280Z,11.17
2018-04-26T17:07:32.807Z,16.67
2018-04-26T17:10:02.395Z,28.73
2018-04-26T17:12:31.973Z,22.63
2018-04-26T17:15:01.532Z,16.13
2018-04-26T17:17:31.083Z,17.20
2018-04-26T17:20:00.656Z,21.87
2018-04-26T17:22:30.220Z,22.23
2018-04-26T17:24:59.772Z,21.77
2018-04-26T17:27:29.311Z,25.13
2018-04-26T17:29:59.055Z,26.87
2018-04-26T17:32:28.531Z,19.00
2018-04-26T17:34:58.078Z,21.33
2018-04-26T17:37:27.595Z,29.43
2018-04-26T17:39:57.137Z,18.30
2018-04-26T17:42:26.750Z,15.80
2018-04-26T17:44:56.377Z,20.17
2018-04-26T17:47:25.945Z,20.93
2018-04-26T17:49:55.510Z,28.60
2018-04-26T17:52:25.134Z,23.23
2018-04-26T17:54:54.675Z,17.97
2018-04-26T17:57:24.220Z,21.40
2018-04-26T17:59:53.806Z,23.93
2018-04-26T18:02:23.342Z,17.40
2018-04-26T18:04:52.855Z,21.83
2018-04-26T18:07:22.480Z,20.47
2018-04-26T18:09:52.010Z,19.70
2018-04-26T18:12:21.521Z,23.93
2018-04-26T18:14:51.174Z,18.07
2018-04-26T18:17:20.688Z,21.43
2018-04-26T18:19:50.386Z,25.93
2018-04-26T18:22:19.926Z,22.00
2018-04-26T18:24:49.446Z,20.07
2018-04-26T18:27:18.981Z,20.80
2018-04-26T18:29:48.492Z,20.53
2018-04-26T18:32:18.960Z,19.93
2018-04-26T18:34:48.824Z,15.53
2018-04-26T18:37:18.361Z,11.63
2018-04-26T18:39:47.871Z,21.17
2018-04-26T18:42:17.430Z,18.67
2018-04-26T18:44:46.972Z,20.13
2018-04-26T18:47:16.447Z,13.93
2018-04-26T18:49:46.013Z,33.30
2018-04-26T18:52:15.756Z,20.27
2018-04-26T18:54:45.288Z,27.33
2018-04-26T18:57:14.801Z,19.80
2018-04-26T18:59:44.767Z,24.83
2018-04-26T19:02:14.665Z,22.30
2018-04-26T19:04:44.424Z,18.40
2018-04-26T19:07:14.239Z,18.80
2018-04-26T19:09:43.753Z,16.57
2018-04-26T19:12:13.460Z,18.17
2018-04-26T19:14:43.329Z,20.00
2018-04-26T19:17:12.888Z,15.20
2018-04-26T19:19:42.446Z,37.03
2018-04-26T19:22:11.951Z,15.10
2018-04-26T19:24:41.703Z,27.17
2018-04-26T19:27:11.244Z,29.03
2018-04-26T19:29:40.791Z,23.40
2018-04-26T19:32:10.602Z,17.63
2018-04-26T19:34:40.277Z,24.83
2018-04-26T19:37:09.824Z,30.10
2018-04-26T19:39:39.377Z,24.53
2018-04-26T19:42:09.150Z,22.20
2018-04-26T19:44:38.712Z,24.23
2018-04-26T19:47:08.291Z,25.50
2018-04-26T19:49:38.484Z,24.90
2018-04-26T19:52:08.201Z,16.30
2018-04-26T19:54:37.701Z,29.20
2018-04-26T19:57:07.467Z,26.10
2018-04-26T19:59:37.051Z,23.97
2018-04-26T20:02:06.785Z,25.57
2018-04-26T20:04:36.544Z,19.73
2018-04-26T20:07:06.138Z,20.20
2018-04-26T20:09:35.684Z,31.70
2018-04-26T20:12:05.606Z,20.97
2018-04-26T20:14:35.357Z,22.73
2018-04-26T20:17:04.919Z,20.50
2018-04-26T20:19:34.480Z,21.37
2018-04-26T20:22:04.312Z,19.57
2018-04-26T20:24:34.009Z,17.13
2018-04-26T20:27:03.821Z,21.20
2018-04-26T20:29:33.699Z,20.60
2018-04-26T20:32:04.418Z,29.73
2018-04-26T20:34:34.265Z,20.60
2018-04-26T20:37:03.963Z,20.90
2018-04-26T20:39:33.746Z,26.43
2018-04-26T20:42:03.438Z,21.87
2018-04-26T20:44:38.888Z,21.80
2018-04-26T20:47:08.480Z,13.50
2018-04-26T20:49:38.068Z,28.43
2018-04-26T20:52:07.945Z,19.90
2018-04-26T20:54:37.649Z,24.47
2018-04-26T20:57:07.235Z,26.53
2018-04-26T20:59:36.891Z,26.77
2018-04-26T21:02:06.652Z,29.53
2018-04-26T21:04:36.490Z,20.97
2018-04-26T21:07:06.259Z,34.77
2018-04-26T21:09:35.976Z,22.20
2018-04-26T21:12:05.571Z,21.40
2018-04-26T21:14:35.162Z,35.40
2018-04-26T21:17:04.812Z,26.90
2018-04-26T21:19:34.582Z,39.20
2018-04-26T21:22:04.220Z,21.60
2018-04-26T21:24:33.861Z,29.47
2018-04-26T21:27:03.457Z,24.07
2018-04-26T21:29:32.980Z,24.80
2018-04-26T21:32:02.716Z,19.80
2018-04-26T21:34:32.509Z,21.27
2018-04-26T21:37:02.071Z,20.93
2018-04-26T21:39:31.568Z,20.63
2018-04-26T21:42:01.132Z,20.33
2018-04-26T21:44:30.805Z,27.00
2018-04-26T21:47:00.324Z,26.43
2018-04-26T21:49:29.418Z,24.87
2018-04-26T21:52:05.193Z,25.33
2018-04-26T21:54:40.672Z,23.63
2018-04-26T21:57:15.962Z,33.47
2018-04-26T21:59:51.186Z,34.03
2018-04-26T22:02:22.117Z,31.23
2018-04-26T22:05:08.505Z,22.97
2018-04-26T22:07:38.195Z,31.90
2018-04-26T22:10:07.721Z,27.63
2018-04-26T22:12:37.294Z,25.87
2018-04-26T22:15:06.927Z,25.43
2018-04-26T22:17:36.449Z,25.03
2018-04-26T22:20:05.993Z,27.33
2018-04-26T22:22:35.636Z,29.80
2018-04-26T22:25:05.158Z,26.77
2018-04-26T22:27:34.683Z,28.60
2018-04-26T22:30:04.184Z,46.57
2018-04-26T22:32:33.680Z,29.23
2018-04-26T22:35:03.158Z,36.27
2018-04-26T22:37:32.676Z,37.00
2018-04-26T22:40:02.170Z,31.60
2018-04-26T22:42:31.704Z,28.67
2018-04-26T22:45:02.096Z,27.60
2018-04-26T22:47:31.648Z,29.33
2018-04-26T22:50:01.167Z,28.50
2018-04-26T22:52:30.655Z,27.47
2018-04-26T22:55:00.212Z,27.80
2018-04-26T22:57:29.777Z,29.97
2018-04-26T22:59:59.319Z,34.30
2018-04-26T23:02:28.823Z,26.00
2018-04-26T23:04:58.282Z,27.07
2018-04-26T23:07:27.887Z,32.00
2018-04-26T23:09:57.440Z,30.53
2018-04-26T23:12:26.967Z,22.73
2018-04-26T23:14:56.494Z,26.73
2018-04-26T23:17:26.037Z,31.20
2018-04-26T23:19:55.584Z,23.40
2018-04-26T23:22:25.315Z,27.10
2018-04-26T23:24:54.926Z,38.50
2018-04-26T23:27:24.429Z,30.17
2018-04-26T23:29:53.976Z,24.13
2018-04-26T23:32:23.740Z,29.20
2018-04-26T23:34:53.316Z,39.63
2018-04-26T23:37:22.872Z,32.13
2018-04-26T23:39:52.424Z,30.63
2018-04-26T23:42:21.981Z,35.00
2018-04-26T23:44:51.487Z,25.37
2018-04-26T23:47:20.997Z,32.47
2018-04-26T23:49:50.533Z,34.03
2018-04-26T23:52:20.041Z,30.50
2018-04-26T23:54:49.544Z,27.37
2018-04-26T23:57:19.050Z,28.47
2018-04-26T23:59:48.579Z,29.33
